Accueil
METAR-TAF:

METAR-TAF

Aéroports :

Aéroport civil d'Amman

Amman, Jordanie

latitude: 31-59N, longitude: 035-59E, altitude: 767 m

Observation

Le bulletin a été fait il y a 24 minutes, à 21:00 UTC
Vent 4 kt de nord-est
Température 21°C
Humidité 78%
Pression 1010 hPa
Visibilité: 5000 m
brume sèche

METAR: OJAM 192100Z 04004KT 5000 HZ NSC 21/17 Q1010 NOSIG

Heure: 00:24 (21:24 UTC)

Prévision

Le bulletin a été fait il y a 4 heures et 34 minutes, à 16:50 UTC
Prévision valable du 19 à 18 UTC au 20 à 24 UTC
Vent 8 kt de ouest/nord-ouest
Visibilité: 5000 m
brume sèche

TAF: OJAM 191650Z 1918/2024 29008KT 5000 HZ NSC

Observations et prévisions météorologiques de plus de 4000 aéroports (messages METAR et TAF).

Les stations disponibles sont représentées par des disques jaunes et rouges sur la carte.

Passer la souris dessus pour voir le nom de la station.

Cliquer dessus pour voir les observations et prévisions météorologiques.

Pour changer de carte: cliquez sur les boutons verts avec une croix noire pour zoomer, sur le bouton vert avec un tiret pour effectuer un zoom arrière, ou sur les flèches vertes pour les cartes adjacentes.


METAR-TAF: